createdAt,value
2018-12-25T00:00:39.858Z,84.80
2018-12-25T00:01:39.849Z,85.00
2018-12-25T00:02:39.860Z,85.14
2018-12-25T00:03:39.868Z,85.14
2018-12-25T00:04:39.815Z,85.46
2018-12-25T00:05:39.803Z,85.56
2018-12-25T00:06:39.794Z,85.14
2018-12-25T00:07:39.784Z,86.08
2018-12-25T00:08:39.795Z,85.25
2018-12-25T00:09:39.790Z,85.25
2018-12-25T00:10:39.763Z,85.04
2018-12-25T00:11:39.743Z,86.08
2018-12-25T00:12:39.734Z,85.97
2018-12-25T00:13:39.720Z,85.25
2018-12-25T00:14:39.739Z,85.14
2018-12-25T00:15:39.707Z,85.04
2018-12-25T00:16:39.715Z,84.73
2018-12-25T00:17:39.679Z,84.83
2018-12-25T00:18:39.667Z,85.14
2018-12-25T00:19:39.686Z,85.46
2018-12-25T00:20:39.719Z,85.77
2018-12-25T00:21:39.640Z,85.66
2018-12-25T00:22:39.627Z,85.66
2018-12-25T00:23:39.617Z,85.66
2018-12-25T00:24:39.638Z,85.97
2018-12-25T00:25:39.604Z,86.49
2018-12-25T00:26:39.588Z,85.87
2018-12-25T00:27:39.611Z,85.77
2018-12-25T00:28:39.566Z,86.02
2018-12-25T00:29:39.582Z,85.50
2018-12-25T00:30:39.569Z,85.56
2018-12-25T00:31:39.539Z,85.56
2018-12-25T00:32:39.535Z,85.97
2018-12-25T00:33:39.514Z,85.87
2018-12-25T00:34:39.505Z,85.87
2018-12-25T00:35:39.540Z,85.77
2018-12-25T00:36:39.554Z,84.94
2018-12-25T00:37:39.476Z,84.21
2018-12-25T00:38:39.461Z,84.83
2018-12-25T00:39:39.451Z,85.14
2018-12-25T00:40:39.440Z,84.94
2018-12-25T00:41:39.457Z,84.42
2018-12-25T00:42:39.418Z,84.42
2018-12-25T00:43:39.424Z,84.31
2018-12-25T00:44:39.397Z,84.00
2018-12-25T00:45:39.420Z,84.00
2018-12-25T00:46:39.378Z,84.42
2018-12-25T00:47:39.441Z,83.69
2018-12-25T00:48:39.355Z,83.86
2018-12-25T00:49:39.351Z,83.80
2018-12-25T00:50:39.361Z,84.31
2018-12-25T00:51:39.333Z,83.97
2018-12-25T00:52:39.319Z,83.34
2018-12-25T00:53:39.306Z,84.11
2018-12-25T00:54:39.310Z,83.86
2018-12-25T00:55:39.318Z,84.00
2018-12-25T00:56:39.302Z,82.97
2018-12-25T00:57:39.260Z,83.45
2018-12-25T00:58:39.251Z,83.28
2018-12-25T00:59:39.241Z,82.55
2018-12-25T01:00:39.259Z,83.14
2018-12-25T01:01:39.243Z,83.45
2018-12-25T01:02:39.208Z,82.86
2018-12-25T01:03:39.206Z,82.72
2018-12-25T01:04:39.190Z,82.93
2018-12-25T01:05:39.179Z,83.48
2018-12-25T01:06:39.198Z,83.80
2018-12-25T01:07:39.161Z,84.11
2018-12-25T01:08:39.151Z,83.90
2018-12-25T01:09:39.140Z,83.48
2018-12-25T01:10:39.128Z,84.11
2018-12-25T01:11:39.163Z,83.90
2018-12-25T01:12:39.107Z,84.63
2018-12-25T01:13:39.095Z,84.42
2018-12-25T01:14:39.090Z,84.52
2018-12-25T01:15:39.077Z,83.80
2018-12-25T01:16:39.065Z,84.00
2018-12-25T01:17:39.084Z,84.63
2018-12-25T01:18:39.044Z,84.21
2018-12-25T01:19:39.031Z,84.42
2018-12-25T01:20:39.023Z,84.11
2018-12-25T01:21:39.013Z,84.00
2018-12-25T01:22:39.029Z,83.90
2018-12-25T01:23:38.992Z,84.00
2018-12-25T01:24:38.979Z,83.17
2018-12-25T01:25:38.970Z,84.31
2018-12-25T01:26:38.972Z,84.31
2018-12-25T01:27:38.979Z,83.80
2018-12-25T01:28:38.941Z,84.21
2018-12-25T01:29:38.925Z,84.52
2018-12-25T01:30:38.913Z,84.42
2018-12-25T01:31:38.904Z,83.38
2018-12-25T01:32:38.922Z,84.00
2018-12-25T01:33:38.883Z,84.73
2018-12-25T01:34:38.874Z,83.90
2018-12-25T01:35:38.864Z,83.59
2018-12-25T01:36:38.851Z,83.59
2018-12-25T01:37:38.878Z,83.59
2018-12-25T01:38:38.830Z,83.38
2018-12-25T01:39:38.821Z,83.90
2018-12-25T01:40:38.813Z,83.90
2018-12-25T01:41:38.799Z,83.90
2018-12-25T01:42:38.818Z,83.90
2018-12-25T01:43:38.794Z,83.38
2018-12-25T01:44:38.767Z,83.38
2018-12-25T01:45:38.756Z,83.07
2018-12-25T01:46:38.747Z,83.17
2018-12-25T01:47:38.807Z,83.07
2018-12-25T01:48:38.724Z,83.55
2018-12-25T01:49:38.722Z,83.07
2018-12-25T01:50:38.707Z,83.80
2018-12-25T01:51:38.695Z,83.80
2018-12-25T01:52:38.682Z,83.28
2018-12-25T01:53:38.703Z,83.48
2018-12-25T01:54:38.669Z,83.90
2018-12-25T01:55:38.650Z,83.48
2018-12-25T01:56:38.639Z,83.38
2018-12-25T01:57:38.629Z,83.48
2018-12-25T01:58:38.660Z,83.28
2018-12-25T01:59:38.616Z,83.80
2018-12-25T02:00:38.595Z,83.28
2018-12-25T02:01:38.589Z,83.59
2018-12-25T02:02:38.576Z,83.59
2018-12-25T02:03:38.564Z,84.21
2018-12-25T02:04:38.579Z,84.00
2018-12-25T02:05:38.543Z,84.31
2018-12-25T02:06:38.531Z,84.46
2018-12-25T02:07:38.526Z,84.31
2018-12-25T02:08:38.526Z,84.63
2018-12-25T02:09:38.528Z,83.63
2018-12-25T02:10:38.498Z,84.63
2018-12-25T02:11:38.479Z,84.52
2018-12-25T02:12:38.476Z,85.35
2018-12-25T02:13:38.505Z,85.35
2018-12-25T02:14:38.450Z,85.39
2018-12-25T02:15:38.437Z,84.88
2018-12-25T02:16:38.427Z,84.67
2018-12-25T02:17:38.414Z,84.67
2018-12-25T02:18:38.405Z,84.73
2018-12-25T02:19:40.375Z,84.94
2018-12-25T02:20:38.383Z,84.63
2018-12-25T02:21:38.374Z,85.35
2018-12-25T02:22:38.360Z,84.83
2018-12-25T02:23:38.350Z,84.83
2018-12-25T02:24:38.366Z,84.88
2018-12-25T02:25:38.332Z,85.19
2018-12-25T02:26:38.319Z,85.81
2018-12-25T02:27:38.310Z,85.71
2018-12-25T02:28:38.297Z,85.39
2018-12-25T02:29:38.367Z,86.12
2018-12-25T02:30:38.278Z,85.39
2018-12-25T02:31:38.267Z,85.39
2018-12-25T02:32:38.266Z,85.60
2018-12-25T02:33:38.247Z,85.39
2018-12-25T02:34:38.264Z,84.67
2018-12-25T02:35:38.242Z,85.29
2018-12-25T02:36:38.223Z,85.39
2018-12-25T02:37:38.200Z,85.91
2018-12-25T02:38:38.200Z,86.02
2018-12-25T02:39:38.218Z,85.91
2018-12-25T02:40:38.208Z,85.81
2018-12-25T02:41:38.157Z,85.60
2018-12-25T02:42:38.157Z,85.71
2018-12-25T02:43:38.137Z,85.60
2018-12-25T02:44:38.155Z,85.81
2018-12-25T02:45:38.157Z,85.60
2018-12-25T02:46:38.112Z,86.02
2018-12-25T02:47:38.101Z,85.29
2018-12-25T02:48:38.094Z,85.50
2018-12-25T02:49:38.080Z,85.91
2018-12-25T02:50:38.092Z,85.91
2018-12-25T02:51:38.060Z,86.02
2018-12-25T02:52:38.040Z,85.29
2018-12-25T02:53:38.034Z,85.91
2018-12-25T02:54:38.019Z,85.91
2018-12-25T02:55:38.043Z,85.50
2018-12-25T02:56:38.021Z,85.60
2018-12-25T02:57:37.985Z,86.54
2018-12-25T02:58:37.977Z,86.12
2018-12-25T02:59:37.966Z,85.39
2018-12-25T03:00:38.098Z,85.50
2018-12-25T03:01:37.969Z,85.29
2018-12-25T03:02:37.934Z,85.39
2018-12-25T03:03:37.929Z,85.60
2018-12-25T03:04:37.914Z,85.39
2018-12-25T03:05:37.909Z,86.12
2018-12-25T03:06:37.921Z,86.22
2018-12-25T03:07:37.879Z,86.02
2018-12-25T03:08:37.866Z,86.33
2018-12-25T03:09:37.856Z,86.33
2018-12-25T03:10:37.850Z,86.74
2018-12-25T03:11:37.866Z,86.64
2018-12-25T03:12:37.827Z,86.85
2018-12-25T03:13:37.818Z,87.16
2018-12-25T03:14:37.802Z,86.64
2018-12-25T03:15:37.793Z,86.33
2018-12-25T03:16:37.808Z,86.74
2018-12-25T03:17:37.794Z,87.05
2018-12-25T03:18:37.755Z,86.74
2018-12-25T03:19:37.748Z,86.43
2018-12-25T03:20:37.734Z,85.91
2018-12-25T03:21:37.722Z,86.43
2018-12-25T03:22:37.737Z,86.22
2018-12-25T03:23:37.702Z,85.71
2018-12-25T03:24:37.700Z,86.43
2018-12-25T03:25:37.690Z,86.02
2018-12-25T03:26:37.677Z,85.91
2018-12-25T03:27:37.694Z,86.12
2018-12-25T03:28:37.647Z,86.22
2018-12-25T03:29:37.638Z,86.02
2018-12-25T03:30:37.627Z,86.12
2018-12-25T03:31:37.618Z,85.91
2018-12-25T03:32:37.637Z,85.71
2018-12-25T03:33:37.598Z,85.81
2018-12-25T03:34:37.582Z,86.22
2018-12-25T03:35:37.570Z,85.81
2018-12-25T03:36:37.561Z,85.71
2018-12-25T03:37:37.611Z,86.12
2018-12-25T03:38:37.537Z,86.64
2018-12-25T03:39:37.526Z,86.85
2018-12-25T03:40:37.519Z,87.05
2018-12-25T03:41:37.504Z,87.16
2018-12-25T03:42:37.524Z,87.16
2018-12-25T03:43:37.521Z,86.12
2018-12-25T03:44:37.476Z,86.68
2018-12-25T03:45:37.464Z,87.19
2018-12-25T03:46:37.453Z,86.85
2018-12-25T03:47:37.441Z,87.19
2018-12-25T03:48:37.456Z,87.05
2018-12-25T03:49:37.422Z,86.74
2018-12-25T03:50:37.409Z,86.74
2018-12-25T03:51:37.406Z,87.19
2018-12-25T03:52:37.388Z,86.99
2018-12-25T03:53:37.401Z,86.78
2018-12-25T03:54:37.369Z,86.88
2018-12-25T03:55:37.356Z,86.78
2018-12-25T03:56:37.344Z,86.88
2018-12-25T03:57:37.337Z,86.99
2018-12-25T03:58:37.382Z,87.13
2018-12-25T03:59:37.314Z,87.13
2018-12-25T04:00:37.317Z,87.96
2018-12-25T04:01:37.293Z,88.28
2018-12-25T04:02:37.278Z,88.48
2018-12-25T04:03:37.300Z,87.65
2018-12-25T04:04:37.266Z,88.38
2018-12-25T04:05:37.247Z,88.28
2018-12-25T04:06:37.231Z,88.48
2018-12-25T04:07:37.229Z,87.82
2018-12-25T04:08:37.219Z,87.96
2018-12-25T04:09:37.236Z,87.96
2018-12-25T04:10:37.197Z,88.44
2018-12-25T04:11:37.181Z,88.02
2018-12-25T04:12:37.173Z,87.92
2018-12-25T04:13:37.161Z,87.92
2018-12-25T04:14:37.187Z,88.02
2018-12-25T04:15:37.165Z,87.82
2018-12-25T04:16:37.126Z,87.30
2018-12-25T04:17:37.116Z,87.09
2018-12-25T04:18:37.111Z,87.19
2018-12-25T04:19:37.128Z,86.99
2018-12-25T04:20:37.117Z,86.78
2018-12-25T04:21:37.072Z,86.26
2018-12-25T04:22:37.063Z,87.05
2018-12-25T04:23:37.054Z,86.74
2018-12-25T04:24:37.040Z,87.40
2018-12-25T04:25:37.070Z,86.64
2018-12-25T04:26:37.029Z,87.26
2018-12-25T04:27:37.009Z,86.64
2018-12-25T04:28:36.998Z,87.26
2018-12-25T04:29:36.990Z,87.09
2018-12-25T04:30:37.002Z,86.88
2018-12-25T04:31:37.000Z,87.05
2018-12-25T04:32:36.958Z,87.19
2018-12-25T04:33:36.947Z,87.09
2018-12-25T04:34:36.934Z,86.99
2018-12-25T04:35:36.952Z,88.23
2018-12-25T04:36:36.922Z,88.13
2018-12-25T04:37:36.903Z,87.71
2018-12-25T04:38:36.890Z,88.02
2018-12-25T04:39:36.876Z,87.71
2018-12-25T04:40:36.895Z,88.40
2018-12-25T04:41:36.858Z,88.61
2018-12-25T04:42:36.848Z,88.51
2018-12-25T04:43:36.838Z,88.51
2018-12-25T04:44:36.824Z,88.23
2018-12-25T04:45:36.838Z,88.96
2018-12-25T04:46:36.803Z,89.89
2018-12-25T04:47:36.819Z,88.13
2018-12-25T04:48:36.781Z,88.34
2018-12-25T04:49:36.778Z,88.34
2018-12-25T04:50:36.760Z,88.44
2018-12-25T04:51:36.785Z,88.51
2018-12-25T04:52:36.739Z,88.92
2018-12-25T04:53:36.739Z,89.96
2018-12-25T04:54:36.717Z,89.89
2018-12-25T04:55:36.705Z,89.79
2018-12-25T04:56:36.726Z,89.79
2018-12-25T04:57:36.711Z,88.96
2018-12-25T04:58:36.673Z,89.86
2018-12-25T04:59:36.662Z,88.71
2018-12-25T05:00:36.650Z,88.82
2018-12-25T05:01:36.664Z,89.79
2018-12-25T05:02:36.630Z,88.75
2018-12-25T05:03:36.621Z,89.03
2018-12-25T05:04:36.610Z,88.71
2018-12-25T05:05:36.597Z,89.27
2018-12-25T05:06:36.615Z,89.58
2018-12-25T05:07:36.574Z,88.75
2018-12-25T05:08:36.565Z,88.75
2018-12-25T05:09:36.555Z,88.85
2018-12-25T05:10:36.543Z,89.37
2018-12-25T05:11:36.560Z,88.85
2018-12-25T05:12:36.523Z,88.85
2018-12-25T05:13:36.514Z,88.13
2018-12-25T05:14:36.500Z,88.65
2018-12-25T05:15:36.489Z,88.75
2018-12-25T05:16:36.503Z,88.75
2018-12-25T05:17:36.466Z,89.69
2018-12-25T05:18:36.458Z,89.58
2018-12-25T05:19:36.450Z,89.79
2018-12-25T05:20:37.926Z,89.27
2018-12-25T05:21:36.453Z,90.00
2018-12-25T05:22:36.413Z,88.85
2018-12-25T05:23:36.399Z,88.75
2018-12-25T05:24:36.389Z,88.54
2018-12-25T05:25:36.378Z,88.85
2018-12-25T05:26:36.397Z,88.54
2018-12-25T05:27:36.355Z,88.30
2018-12-25T05:28:36.347Z,88.85
2018-12-25T05:29:36.362Z,88.54
2018-12-25T05:30:36.326Z,88.34
2018-12-25T05:31:36.314Z,88.75
2018-12-25T05:32:36.329Z,88.65
2018-12-25T05:33:36.326Z,88.54
2018-12-25T05:34:36.281Z,88.54
2018-12-25T05:35:36.269Z,88.54
2018-12-25T05:36:36.269Z,88.44
2018-12-25T05:37:36.453Z,88.75
2018-12-25T05:38:36.269Z,88.65
2018-12-25T05:39:36.232Z,88.65
2018-12-25T05:40:36.245Z,88.44
2018-12-25T05:41:36.224Z,88.02
2018-12-25T05:42:36.195Z,88.65
2018-12-25T05:43:36.214Z,88.85
2018-12-25T05:44:36.176Z,88.65
2018-12-25T05:45:36.190Z,88.75
2018-12-25T05:46:36.161Z,88.79
2018-12-25T05:47:36.145Z,88.65
2018-12-25T05:48:36.128Z,88.65
2018-12-25T05:49:36.122Z,88.44
2018-12-25T05:50:36.134Z,88.44
2018-12-25T05:51:36.110Z,88.54
2018-12-25T05:52:36.087Z,87.82
2018-12-25T05:53:36.100Z,88.23
2018-12-25T05:54:36.097Z,88.44
2018-12-25T05:55:36.058Z,87.82
2018-12-25T05:56:36.042Z,87.92
2018-12-25T05:57:36.032Z,88.54
2018-12-25T05:58:36.020Z,88.34
2018-12-25T05:59:36.036Z,88.02
2018-12-25T06:00:36.029Z,88.02
2018-12-25T06:01:35.986Z,87.71
2018-12-25T06:02:35.977Z,88.44
2018-12-25T06:03:35.965Z,88.34
2018-12-25T06:04:35.983Z,88.13
2018-12-25T06:05:35.943Z,88.13
2018-12-25T06:06:35.932Z,87.92
2018-12-25T06:07:35.922Z,87.82
2018-12-25T06:08:35.911Z,87.57
2018-12-25T06:09:35.922Z,87.88
2018-12-25T06:10:35.918Z,88.13
2018-12-25T06:11:35.887Z,87.82
2018-12-25T06:12:35.867Z,88.02
2018-12-25T06:13:35.856Z,87.47
2018-12-25T06:14:35.876Z,87.57
2018-12-25T06:15:35.833Z,88.44
2018-12-25T06:16:35.825Z,88.02
2018-12-25T06:17:35.813Z,87.99
2018-12-25T06:18:35.801Z,88.09
2018-12-25T06:19:35.817Z,88.20
2018-12-25T06:20:35.780Z,87.78
2018-12-25T06:21:35.770Z,87.68
2018-12-25T06:22:35.757Z,87.99
2018-12-25T06:23:35.747Z,88.09
2018-12-25T06:24:35.748Z,87.88
2018-12-25T06:25:35.759Z,88.09
2018-12-25T06:26:35.718Z,87.88
2018-12-25T06:27:35.704Z,87.78
2018-12-25T06:28:35.695Z,87.57
2018-12-25T06:29:35.683Z,88.09
2018-12-25T06:30:35.707Z,88.09
2018-12-25T06:31:35.669Z,87.88
2018-12-25T06:32:35.648Z,87.78
2018-12-25T06:33:35.641Z,88.30
2018-12-25T06:34:35.633Z,87.78
2018-12-25T06:35:35.643Z,88.23
2018-12-25T06:36:35.660Z,87.99
2018-12-25T06:37:35.594Z,87.47
2018-12-25T06:38:35.585Z,87.09
2018-12-25T06:39:35.578Z,87.16
2018-12-25T06:40:35.566Z,88.40
2018-12-25T06:41:35.577Z,88.20
2018-12-25T06:42:35.542Z,88.09
2018-12-25T06:43:35.531Z,87.57
2018-12-25T06:44:35.519Z,87.26
2018-12-25T06:45:35.508Z,88.09
2018-12-25T06:46:35.620Z,87.88
2018-12-25T06:47:35.487Z,87.78
2018-12-25T06:48:35.476Z,87.78
2018-12-25T06:49:35.468Z,87.99
2018-12-25T06:50:35.453Z,86.85
2018-12-25T06:51:35.477Z,87.05
2018-12-25T06:52:35.433Z,86.85
2018-12-25T06:53:35.420Z,86.74
2018-12-25T06:54:35.410Z,86.85
2018-12-25T06:55:35.400Z,86.54
2018-12-25T06:56:35.433Z,87.26
2018-12-25T06:57:35.376Z,87.16
2018-12-25T06:58:35.367Z,87.16
2018-12-25T06:59:35.355Z,87.16
2018-12-25T07:00:35.344Z,86.64
2018-12-25T07:01:35.359Z,87.05
2018-12-25T07:02:35.357Z,87.16
2018-12-25T07:03:35.318Z,87.16
2018-12-25T07:04:35.307Z,86.43
2018-12-25T07:05:35.288Z,87.26
2018-12-25T07:06:35.280Z,87.26
2018-12-25T07:07:35.295Z,86.43
2018-12-25T07:08:35.265Z,86.95
2018-12-25T07:09:35.248Z,87.05
2018-12-25T07:10:35.243Z,88.09
2018-12-25T07:11:35.224Z,87.88
2018-12-25T07:12:35.238Z,87.05
2018-12-25T07:13:35.226Z,86.74
2018-12-25T07:14:35.189Z,87.05
2018-12-25T07:15:35.184Z,87.37
2018-12-25T07:16:35.168Z,87.16
2018-12-25T07:17:35.191Z,86.43
2018-12-25T07:18:35.172Z,87.16
2018-12-25T07:19:35.135Z,87.16
2018-12-25T07:20:35.127Z,87.88
2018-12-25T07:21:35.115Z,87.05
2018-12-25T07:22:35.130Z,87.05
2018-12-25T07:23:35.091Z,87.99
2018-12-25T07:24:35.082Z,87.16
2018-12-25T07:25:35.069Z,87.26
2018-12-25T07:26:35.059Z,86.95
2018-12-25T07:27:35.075Z,86.54
2018-12-25T07:28:35.038Z,86.54
2018-12-25T07:29:35.026Z,86.85
2018-12-25T07:30:35.018Z,87.16
2018-12-25T07:31:35.005Z,86.85
2018-12-25T07:32:35.019Z,86.54
2018-12-25T07:33:34.986Z,86.70
2018-12-25T07:34:34.999Z,87.16
2018-12-25T07:35:34.988Z,86.95
2018-12-25T07:36:34.954Z,87.22
2018-12-25T07:37:34.938Z,86.74
2018-12-25T07:38:34.943Z,86.74
2018-12-25T07:39:34.944Z,86.91
2018-12-25T07:40:34.909Z,87.01
2018-12-25T07:41:34.898Z,86.18
2018-12-25T07:42:34.887Z,86.39
2018-12-25T07:43:34.903Z,86.60
2018-12-25T07:44:34.893Z,86.91
2018-12-25T07:45:34.855Z,87.12
2018-12-25T07:46:34.850Z,87.01
2018-12-25T07:47:34.838Z,86.60
2018-12-25T07:48:34.824Z,86.49
2018-12-25T07:49:34.857Z,86.91
2018-12-25T07:50:34.805Z,87.01
2018-12-25T07:51:34.794Z,86.91
2018-12-25T07:52:34.785Z,86.08
2018-12-25T07:53:34.770Z,87.43
2018-12-25T07:54:34.789Z,86.29
2018-12-25T07:55:34.755Z,86.60
2018-12-25T07:56:34.741Z,87.32
2018-12-25T07:57:34.735Z,86.91
2018-12-25T07:58:34.734Z,87.01
2018-12-25T07:59:34.747Z,87.01
2018-12-25T08:00:34.703Z,87.12
2018-12-25T08:01:34.690Z,87.18
2018-12-25T08:02:34.681Z,87.01
2018-12-25T08:03:34.671Z,86.49
2018-12-25T08:04:34.690Z,87.07
2018-12-25T08:05:34.679Z,86.97
2018-12-25T08:06:34.664Z,86.45
2018-12-25T08:07:34.628Z,87.22
2018-12-25T08:08:34.618Z,86.97
2018-12-25T08:09:34.609Z,86.45
2018-12-25T08:10:34.624Z,87.18
2018-12-25T08:11:34.589Z,86.76
2018-12-25T08:12:34.582Z,86.45
2018-12-25T08:13:34.572Z,86.66
2018-12-25T08:14:34.581Z,86.97
2018-12-25T08:15:34.545Z,86.55
2018-12-25T08:16:34.560Z,86.76
2018-12-25T08:17:34.526Z,86.25
2018-12-25T08:18:34.513Z,86.66
2018-12-25T08:19:34.506Z,87.12
2018-12-25T08:20:34.516Z,86.76
2018-12-25T08:21:34.485Z,86.76
2018-12-25T08:22:34.476Z,86.35
2018-12-25T08:23:34.465Z,86.55
2018-12-25T08:24:34.455Z,86.45
2018-12-25T08:25:34.469Z,86.97
2018-12-25T08:26:34.434Z,86.25
2018-12-25T08:27:34.421Z,86.35
2018-12-25T08:28:34.412Z,86.45
2018-12-25T08:29:34.412Z,86.45
2018-12-25T08:30:34.426Z,85.94
2018-12-25T08:31:34.380Z,86.45
2018-12-25T08:32:34.401Z,86.41
2018-12-25T08:33:34.362Z,86.55
2018-12-25T08:34:34.350Z,86.15
2018-12-25T08:35:34.341Z,85.83
2018-12-25T08:36:36.468Z,85.63
2018-12-25T08:37:34.341Z,85.83
2018-12-25T08:38:34.436Z,86.04
2018-12-25T08:39:34.297Z,85.89
2018-12-25T08:40:34.287Z,85.17
2018-12-25T08:41:34.300Z,85.27
2018-12-25T08:42:34.265Z,84.96
2018-12-25T08:43:34.260Z,85.06
2018-12-25T08:44:34.244Z,85.27
2018-12-25T08:45:34.241Z,85.79
2018-12-25T08:46:34.279Z,84.96
2018-12-25T08:47:34.215Z,85.27
2018-12-25T08:48:34.203Z,85.06
2018-12-25T08:49:34.192Z,85.27
2018-12-25T08:50:34.186Z,85.06
2018-12-25T08:51:37.766Z,85.27
2018-12-25T08:52:34.254Z,85.69
2018-12-25T08:53:34.153Z,85.27
2018-12-25T08:54:34.140Z,84.96
2018-12-25T08:55:34.131Z,85.27
2018-12-25T08:56:34.243Z,85.38
2018-12-25T08:57:34.239Z,85.38
2018-12-25T08:58:34.101Z,84.75
2018-12-25T08:59:34.093Z,84.61
2018-12-25T09:00:34.078Z,85.55
2018-12-25T09:01:34.070Z,84.75
2018-12-25T09:02:34.085Z,84.55
2018-12-25T09:03:34.051Z,85.24
2018-12-25T09:04:34.040Z,85.13
2018-12-25T09:05:34.037Z,84.72
2018-12-25T09:06:34.045Z,84.51
2018-12-25T09:07:34.033Z,84.96
2018-12-25T09:08:34.942Z,84.82
2018-12-25T09:09:33.991Z,84.65
2018-12-25T09:10:33.982Z,84.61
2018-12-25T09:11:33.968Z,84.55
2018-12-25T09:12:33.958Z,84.65
2018-12-25T09:13:33.986Z,84.72
2018-12-25T09:14:33.943Z,84.82
2018-12-25T09:15:33.937Z,84.20
2018-12-25T09:16:33.920Z,84.34
2018-12-25T09:17:33.907Z,84.72
2018-12-25T09:18:33.934Z,84.61
2018-12-25T09:19:33.888Z,84.34
2018-12-25T09:20:33.878Z,84.72
2018-12-25T09:21:33.873Z,85.06
2018-12-25T09:22:33.865Z,84.44
2018-12-25T09:23:33.873Z,84.55
2018-12-25T09:24:33.840Z,84.34
2018-12-25T09:25:33.829Z,84.23
2018-12-25T09:26:33.924Z,84.34
2018-12-25T09:27:33.818Z,84.86
2018-12-25T09:28:33.834Z,84.86
2018-12-25T09:29:33.788Z,84.75
2018-12-25T09:30:33.781Z,84.96
2018-12-25T09:31:33.801Z,84.55
2018-12-25T09:32:33.759Z,84.34
2018-12-25T09:33:33.790Z,84.75
2018-12-25T09:34:33.742Z,83.51
2018-12-25T09:35:33.728Z,83.51
2018-12-25T09:36:33.721Z,84.75
2018-12-25T09:37:33.708Z,83.93
2018-12-25T09:38:33.734Z,84.34
2018-12-25T09:39:33.713Z,84.55
2018-12-25T09:40:33.681Z,84.34
2018-12-25T09:41:33.671Z,83.93
2018-12-25T09:42:33.658Z,83.93
2018-12-25T09:43:33.648Z,84.03
2018-12-25T09:44:33.672Z,83.51
2018-12-25T09:45:33.626Z,84.23
2018-12-25T09:46:33.625Z,84.34
2018-12-25T09:47:33.609Z,84.96
2018-12-25T09:48:33.599Z,84.23
2018-12-25T09:49:33.610Z,83.51
2018-12-25T09:50:33.578Z,83.89
2018-12-25T09:51:33.568Z,84.03
2018-12-25T09:52:33.560Z,83.68
2018-12-25T09:53:33.544Z,83.58
2018-12-25T09:54:33.568Z,84.16
2018-12-25T09:55:33.541Z,83.23
2018-12-25T09:56:33.519Z,83.44
2018-12-25T09:57:33.511Z,83.02
2018-12-25T09:58:33.502Z,83.02
2018-12-25T09:59:33.516Z,82.92
2018-12-25T10:00:33.476Z,82.81
2018-12-25T10:01:33.469Z,82.50
2018-12-25T10:02:33.456Z,82.46
2018-12-25T10:03:33.447Z,82.98
2018-12-25T10:04:33.461Z,82.78
2018-12-25T10:05:33.427Z,82.26
2018-12-25T10:06:33.419Z,82.36
2018-12-25T10:07:33.424Z,81.33
2018-12-25T10:08:33.396Z,81.43
2018-12-25T10:09:33.416Z,81.54
2018-12-25T10:10:33.428Z,82.46
2018-12-25T10:11:33.366Z,81.49
2018-12-25T10:12:33.365Z,82.12
2018-12-25T10:13:33.347Z,81.81
2018-12-25T10:14:33.338Z,82.22
2018-12-25T10:15:33.351Z,81.29
2018-12-25T10:16:33.320Z,81.12
2018-12-25T10:17:33.321Z,80.98
2018-12-25T10:18:33.304Z,81.09
2018-12-25T10:19:33.286Z,81.09
2018-12-25T10:20:33.435Z,81.39
2018-12-25T10:21:33.267Z,80.98
2018-12-25T10:22:33.261Z,80.98
2018-12-25T10:23:33.246Z,80.88
2018-12-25T10:24:33.236Z,80.77
2018-12-25T10:25:33.263Z,81.05
2018-12-25T10:26:33.217Z,80.88
2018-12-25T10:27:33.204Z,80.84
2018-12-25T10:28:33.197Z,82.50
2018-12-25T10:29:33.194Z,80.94
2018-12-25T10:30:33.226Z,80.53
2018-12-25T10:31:33.167Z,80.94
2018-12-25T10:32:33.238Z,80.94
2018-12-25T10:33:33.146Z,80.84
2018-12-25T10:34:33.139Z,81.25
2018-12-25T10:35:33.133Z,80.53
2018-12-25T10:36:33.208Z,81.46
2018-12-25T10:37:33.115Z,80.84
2018-12-25T10:38:33.097Z,81.15
2018-12-25T10:39:33.090Z,81.15
2018-12-25T10:40:33.075Z,81.15
2018-12-25T10:41:33.094Z,80.53
2018-12-25T10:42:33.056Z,80.84
2018-12-25T10:43:34.847Z,80.74
2018-12-25T10:44:33.035Z,81.35
2018-12-25T10:45:33.039Z,80.11
2018-12-25T10:46:33.063Z,80.84
2018-12-25T10:47:33.004Z,81.32
2018-12-25T10:48:33.002Z,79.60
2018-12-25T10:49:32.995Z,79.97
2018-12-25T10:50:32.980Z,79.49
2018-12-25T10:51:32.969Z,79.97
2018-12-25T10:52:32.989Z,81.11
2018-12-25T10:53:32.963Z,80.90
2018-12-25T10:54:32.937Z,80.90
2018-12-25T10:55:32.927Z,80.80
2018-12-25T10:56:32.916Z,79.97
2018-12-25T10:57:32.939Z,79.87
2018-12-25T10:58:32.900Z,79.80
2018-12-25T10:59:32.886Z,79.49
2018-12-25T11:00:32.876Z,80.11
2018-12-25T11:01:32.876Z,81.21
2018-12-25T11:02:32.881Z,80.70
2018-12-25T11:03:32.875Z,80.01
2018-12-25T11:04:32.848Z,79.91
2018-12-25T11:05:32.824Z,79.70
2018-12-25T11:06:32.817Z,79.66
2018-12-25T11:07:32.838Z,80.18
2018-12-25T11:08:32.837Z,81.42
2018-12-25T11:09:32.789Z,79.56
2018-12-25T11:10:32.779Z,79.66
2018-12-25T11:11:32.765Z,79.87
2018-12-25T11:12:32.796Z,79.87
2018-12-25T11:13:32.745Z,79.46
2018-12-25T11:14:32.735Z,79.32
2018-12-25T11:15:32.730Z,79.63
2018-12-25T11:16:32.722Z,80.18
2018-12-25T11:17:32.706Z,79.32
2018-12-25T11:18:32.720Z,79.94
2018-12-25T11:19:32.712Z,79.73
2018-12-25T11:20:32.678Z,79.83
2018-12-25T11:21:32.673Z,79.32
2018-12-25T11:22:32.683Z,79.42
2018-12-25T11:23:32.674Z,78.80
2018-12-25T11:24:32.643Z,79.11
2018-12-25T11:25:32.639Z,79.52
2018-12-25T11:26:32.618Z,79.32
2018-12-25T11:27:32.609Z,79.52
2018-12-25T11:28:32.639Z,78.70
2018-12-25T11:29:32.596Z,79.01
2018-12-25T11:30:32.576Z,78.91
2018-12-25T11:31:32.570Z,79.22
2018-12-25T11:32:32.557Z,78.56
2018-12-25T11:33:32.583Z,79.18
2018-12-25T11:34:32.575Z,78.91
2018-12-25T11:35:32.555Z,78.39
2018-12-25T11:36:32.518Z,79.22
2018-12-25T11:37:32.507Z,78.25
2018-12-25T11:38:32.500Z,78.35
2018-12-25T11:39:32.515Z,78.35
2018-12-25T11:40:32.476Z,78.77
2018-12-25T11:41:32.465Z,78.14
2018-12-25T11:42:32.454Z,78.66
2018-12-25T11:43:32.444Z,78.77
2018-12-25T11:44:32.476Z,78.39
2018-12-25T11:45:32.449Z,78.39
2018-12-25T11:46:32.414Z,78.39
2018-12-25T11:47:32.401Z,78.80
2018-12-25T11:48:32.399Z,79.01
2018-12-25T11:49:32.385Z,78.70
2018-12-25T11:50:32.396Z,78.39
2018-12-25T11:51:32.360Z,77.25
2018-12-25T11:52:32.350Z,78.08
2018-12-25T11:53:32.342Z,77.36
2018-12-25T11:54:32.364Z,77.98
2018-12-25T11:55:32.403Z,77.22
2018-12-25T11:56:32.315Z,77.84
2018-12-25T11:57:32.304Z,76.39
2018-12-25T11:58:32.294Z,76.90
2018-12-25T11:59:32.316Z,76.60
2018-12-25T12:00:32.269Z,77.32
2018-12-25T12:01:32.255Z,77.01
2018-12-25T12:02:32.243Z,76.39
2018-12-25T12:03:32.245Z,76.81
2018-12-25T12:04:32.228Z,76.77
2018-12-25T12:05:32.243Z,76.35
2018-12-25T12:06:32.217Z,76.35
2018-12-25T12:07:32.192Z,75.98
2018-12-25T12:08:32.181Z,75.84
2018-12-25T12:09:32.176Z,76.04
2018-12-25T12:10:32.267Z,76.04
2018-12-25T12:11:32.154Z,77.08
2018-12-25T12:12:32.140Z,76.04
2018-12-25T12:13:32.128Z,76.15
2018-12-25T12:14:32.116Z,75.84
2018-12-25T12:15:32.134Z,75.63
2018-12-25T12:16:32.096Z,75.84
2018-12-25T12:17:32.094Z,76.56
2018-12-25T12:18:32.077Z,76.35
2018-12-25T12:19:32.072Z,76.77
2018-12-25T12:20:32.222Z,76.77
2018-12-25T12:21:32.072Z,76.04
2018-12-25T12:22:36.958Z,75.95
2018-12-25T12:23:33.022Z,75.63
2018-12-25T12:24:32.030Z,75.46
2018-12-25T12:25:32.008Z,75.98
2018-12-25T12:26:32.108Z,75.95
2018-12-25T12:27:31.981Z,76.56
2018-12-25T12:28:31.973Z,75.74
2018-12-25T12:29:31.959Z,75.74
2018-12-25T12:30:31.954Z,75.95
2018-12-25T12:31:31.968Z,76.04
2018-12-25T12:32:31.936Z,75.74
2018-12-25T12:33:31.921Z,75.01
2018-12-25T12:34:31.909Z,75.63
2018-12-25T12:35:31.896Z,75.12
2018-12-25T12:36:31.887Z,75.22
2018-12-25T12:37:31.904Z,75.39
2018-12-25T12:38:31.865Z,76.01
2018-12-25T12:39:31.855Z,75.84
2018-12-25T12:40:31.844Z,75.09
2018-12-25T12:41:31.833Z,75.49
2018-12-25T12:42:31.848Z,75.60
2018-12-25T12:43:31.812Z,74.88
2018-12-25T12:44:31.802Z,75.49
2018-12-25T12:45:31.789Z,75.91
2018-12-25T12:46:31.779Z,74.60
2018-12-25T12:47:31.796Z,76.01
2018-12-25T12:48:31.760Z,75.49
2018-12-25T12:49:31.748Z,75.70
2018-12-25T12:50:31.747Z,75.09
2018-12-25T12:51:31.728Z,74.98
2018-12-25T12:52:31.743Z,75.09